sensor_id;sensor_type;location;lat;lon;timestamp;P1;durP1;ratioP1;P2;durP2;ratioP2
10383;SDS011;5238;43.508;4.980;2024-01-30T00:01:39;14.85;;;12.23;;
10383;SDS011;5238;43.508;4.980;2024-01-30T00:04:06;15.73;;;12.85;;
10383;SDS011;5238;43.508;4.980;2024-01-30T00:06:33;18.75;;;12.25;;
10383;SDS011;5238;43.508;4.980;2024-01-30T00:09:01;18.25;;;12.45;;
10383;SDS011;5238;43.508;4.980;2024-01-30T00:11:30;15.68;;;12.73;;
10383;SDS011;5238;43.508;4.980;2024-01-30T00:13:57;16.40;;;12.52;;
10383;SDS011;5238;43.508;4.980;2024-01-30T00:16:24;19.45;;;13.57;;
10383;SDS011;5238;43.508;4.980;2024-01-30T00:18:52;16.90;;;12.10;;
10383;SDS011;5238;43.508;4.980;2024-01-30T00:21:19;16.90;;;11.98;;
10383;SDS011;5238;43.508;4.980;2024-01-30T00:23:47;16.95;;;12.35;;
10383;SDS011;5238;43.508;4.980;2024-01-30T00:26:15;15.57;;;11.65;;
10383;SDS011;5238;43.508;4.980;2024-01-30T00:28:42;15.32;;;12.35;;
10383;SDS011;5238;43.508;4.980;2024-01-30T00:31:09;16.25;;;12.02;;
10383;SDS011;5238;43.508;4.980;2024-01-30T00:33:37;17.80;;;12.25;;
10383;SDS011;5238;43.508;4.980;2024-01-30T00:36:05;14.98;;;11.90;;
10383;SDS011;5238;43.508;4.980;2024-01-30T00:38:32;15.05;;;11.48;;
10383;SDS011;5238;43.508;4.980;2024-01-30T00:40:59;17.00;;;12.15;;
10383;SDS011;5238;43.508;4.980;2024-01-30T00:43:28;17.38;;;12.32;;
10383;SDS011;5238;43.508;4.980;2024-01-30T00:45:56;16.48;;;11.10;;
10383;SDS011;5238;43.508;4.980;2024-01-30T00:48:23;14.32;;;10.75;;
10383;SDS011;5238;43.508;4.980;2024-01-30T00:50:50;14.90;;;11.90;;
10383;SDS011;5238;43.508;4.980;2024-01-30T00:53:17;16.38;;;10.63;;
10383;SDS011;5238;43.508;4.980;2024-01-30T00:55:44;16.05;;;11.27;;
10383;SDS011;5238;43.508;4.980;2024-01-30T00:58:11;13.45;;;10.75;;
10383;SDS011;5238;43.508;4.980;2024-01-30T01:00:40;14.70;;;10.93;;
10383;SDS011;5238;43.508;4.980;2024-01-30T01:03:07;19.30;;;9.98;;
10383;SDS011;5238;43.508;4.980;2024-01-30T01:05:34;11.30;;;9.27;;
10383;SDS011;5238;43.508;4.980;2024-01-30T01:08:01;13.48;;;10.00;;
10383;SDS011;5238;43.508;4.980;2024-01-30T01:10:28;14.43;;;9.70;;
10383;SDS011;5238;43.508;4.980;2024-01-30T01:12:55;12.95;;;9.18;;
10383;SDS011;5238;43.508;4.980;2024-01-30T01:15:22;11.30;;;9.35;;
10383;SDS011;5238;43.508;4.980;2024-01-30T01:17:50;14.00;;;9.57;;
10383;SDS011;5238;43.508;4.980;2024-01-30T01:20:17;11.85;;;9.02;;
10383;SDS011;5238;43.508;4.980;2024-01-30T01:22:44;13.82;;;10.52;;
10383;SDS011;5238;43.508;4.980;2024-01-30T01:25:11;12.98;;;9.20;;
10383;SDS011;5238;43.508;4.980;2024-01-30T01:27:38;12.18;;;9.18;;
10383;SDS011;5238;43.508;4.980;2024-01-30T01:30:08;12.50;;;10.57;;
10383;SDS011;5238;43.508;4.980;2024-01-30T01:32:36;10.40;;;8.85;;
10383;SDS011;5238;43.508;4.980;2024-01-30T01:35:11;12.30;;;8.98;;
10383;SDS011;5238;43.508;4.980;2024-01-30T01:37:38;9.15;;;7.75;;
10383;SDS011;5238;43.508;4.980;2024-01-30T01:40:05;12.38;;;8.50;;
10383;SDS011;5238;43.508;4.980;2024-01-30T01:42:33;10.40;;;9.00;;
10383;SDS011;5238;43.508;4.980;2024-01-30T01:45:00;11.70;;;8.52;;
10383;SDS011;5238;43.508;4.980;2024-01-30T01:47:27;9.52;;;8.52;;
10383;SDS011;5238;43.508;4.980;2024-01-30T01:49:55;12.82;;;9.02;;
10383;SDS011;5238;43.508;4.980;2024-01-30T01:52:22;11.30;;;8.88;;
10383;SDS011;5238;43.508;4.980;2024-01-30T01:54:49;11.80;;;7.97;;
10383;SDS011;5238;43.508;4.980;2024-01-30T01:57:16;11.23;;;9.02;;
10383;SDS011;5238;43.508;4.980;2024-01-30T01:59:43;10.90;;;8.40;;
10383;SDS011;5238;43.508;4.980;2024-01-30T02:02:10;10.52;;;7.85;;
10383;SDS011;5238;43.508;4.980;2024-01-30T02:04:39;10.95;;;8.00;;
10383;SDS011;5238;43.508;4.980;2024-01-30T02:07:06;11.65;;;8.95;;
10383;SDS011;5238;43.508;4.980;2024-01-30T02:09:34;10.35;;;8.65;;
10383;SDS011;5238;43.508;4.980;2024-01-30T02:12:02;10.15;;;7.90;;
10383;SDS011;5238;43.508;4.980;2024-01-30T02:14:29;11.27;;;8.35;;
10383;SDS011;5238;43.508;4.980;2024-01-30T02:16:56;9.68;;;7.65;;
10383;SDS011;5238;43.508;4.980;2024-01-30T02:19:23;11.40;;;8.05;;
10383;SDS011;5238;43.508;4.980;2024-01-30T02:21:51;12.93;;;8.48;;
10383;SDS011;5238;43.508;4.980;2024-01-30T02:24:19;11.40;;;8.25;;
10383;SDS011;5238;43.508;4.980;2024-01-30T02:26:46;11.20;;;7.63;;
10383;SDS011;5238;43.508;4.980;2024-01-30T02:29:13;9.63;;;8.00;;
10383;SDS011;5238;43.508;4.980;2024-01-30T02:31:40;11.18;;;8.02;;
10383;SDS011;5238;43.508;4.980;2024-01-30T02:34:07;8.05;;;7.00;;
10383;SDS011;5238;43.508;4.980;2024-01-30T02:36:34;10.73;;;8.00;;
10383;SDS011;5238;43.508;4.980;2024-01-30T02:39:03;9.13;;;7.18;;
10383;SDS011;5238;43.508;4.980;2024-01-30T02:41:30;8.82;;;6.70;;
10383;SDS011;5238;43.508;4.980;2024-01-30T02:43:57;10.35;;;6.68;;
10383;SDS011;5238;43.508;4.980;2024-01-30T02:46:24;8.75;;;6.68;;
10383;SDS011;5238;43.508;4.980;2024-01-30T02:48:51;8.95;;;6.93;;
10383;SDS011;5238;43.508;4.980;2024-01-30T02:51:18;9.80;;;7.13;;
10383;SDS011;5238;43.508;4.980;2024-01-30T02:53:45;8.57;;;7.40;;
10383;SDS011;5238;43.508;4.980;2024-01-30T02:56:13;7.68;;;6.15;;
10383;SDS011;5238;43.508;4.980;2024-01-30T02:58:41;8.40;;;6.57;;
10383;SDS011;5238;43.508;4.980;2024-01-30T03:01:08;9.27;;;6.70;;
10383;SDS011;5238;43.508;4.980;2024-01-30T03:03:35;11.25;;;7.07;;
10383;SDS011;5238;43.508;4.980;2024-01-30T03:06:02;8.70;;;6.28;;
10383;SDS011;5238;43.508;4.980;2024-01-30T03:08:29;7.15;;;6.45;;
10383;SDS011;5238;43.508;4.980;2024-01-30T03:10:56;10.60;;;7.28;;
10383;SDS011;5238;43.508;4.980;2024-01-30T03:13:24;7.63;;;6.13;;
10383;SDS011;5238;43.508;4.980;2024-01-30T03:15:51;9.70;;;6.65;;
10383;SDS011;5238;43.508;4.980;2024-01-30T03:18:19;7.97;;;6.28;;
10383;SDS011;5238;43.508;4.980;2024-01-30T03:20:46;10.43;;;6.97;;
10383;SDS011;5238;43.508;4.980;2024-01-30T03:23:13;10.77;;;6.40;;
10383;SDS011;5238;43.508;4.980;2024-01-30T03:25:40;9.32;;;7.32;;
10383;SDS011;5238;43.508;4.980;2024-01-30T03:28:07;9.65;;;5.95;;
10383;SDS011;5238;43.508;4.980;2024-01-30T03:30:35;9.95;;;6.35;;
10383;SDS011;5238;43.508;4.980;2024-01-30T03:33:02;9.70;;;6.15;;
10383;SDS011;5238;43.508;4.980;2024-01-30T03:35:29;7.65;;;6.43;;
10383;SDS011;5238;43.508;4.980;2024-01-30T03:37:56;12.10;;;7.60;;
10383;SDS011;5238;43.508;4.980;2024-01-30T03:40:23;11.32;;;6.10;;
10383;SDS011;5238;43.508;4.980;2024-01-30T03:42:50;7.20;;;6.30;;
10383;SDS011;5238;43.508;4.980;2024-01-30T03:45:17;7.72;;;6.47;;
10383;SDS011;5238;43.508;4.980;2024-01-30T03:47:47;6.85;;;5.75;;
10383;SDS011;5238;43.508;4.980;2024-01-30T03:50:14;9.07;;;6.55;;
10383;SDS011;5238;43.508;4.980;2024-01-30T03:52:41;9.32;;;7.50;;
10383;SDS011;5238;43.508;4.980;2024-01-30T03:55:08;7.68;;;6.82;;
10383;SDS011;5238;43.508;4.980;2024-01-30T03:57:35;7.22;;;5.97;;
10383;SDS011;5238;43.508;4.980;2024-01-30T04:00:02;9.38;;;7.00;;
10383;SDS011;5238;43.508;4.980;2024-01-30T04:02:31;9.90;;;6.88;;
10383;SDS011;5238;43.508;4.980;2024-01-30T04:04:59;8.90;;;6.80;;
10383;SDS011;5238;43.508;4.980;2024-01-30T04:07:26;8.82;;;6.47;;
10383;SDS011;5238;43.508;4.980;2024-01-30T04:09:54;9.10;;;6.78;;
10383;SDS011;5238;43.508;4.980;2024-01-30T04:12:21;9.10;;;7.35;;
10383;SDS011;5238;43.508;4.980;2024-01-30T04:14:48;8.77;;;7.88;;
10383;SDS011;5238;43.508;4.980;2024-01-30T04:17:15;8.70;;;6.47;;
10383;SDS011;5238;43.508;4.980;2024-01-30T04:19:42;11.52;;;6.60;;
10383;SDS011;5238;43.508;4.980;2024-01-30T04:22:10;9.15;;;6.93;;
10383;SDS011;5238;43.508;4.980;2024-01-30T04:24:37;7.35;;;6.38;;
10383;SDS011;5238;43.508;4.980;2024-01-30T04:27:04;7.55;;;6.15;;
10383;SDS011;5238;43.508;4.980;2024-01-30T04:29:31;8.27;;;6.72;;
10383;SDS011;5238;43.508;4.980;2024-01-30T04:31:59;7.43;;;6.35;;
10383;SDS011;5238;43.508;4.980;2024-01-30T04:34:26;8.35;;;6.28;;
10383;SDS011;5238;43.508;4.980;2024-01-30T04:36:53;7.90;;;6.25;;
10383;SDS011;5238;43.508;4.980;2024-01-30T04:39:21;7.80;;;6.30;;
10383;SDS011;5238;43.508;4.980;2024-01-30T04:41:48;7.47;;;5.95;;
10383;SDS011;5238;43.508;4.980;2024-01-30T04:44:15;8.82;;;5.88;;
10383;SDS011;5238;43.508;4.980;2024-01-30T04:46:42;7.85;;;6.65;;
10383;SDS011;5238;43.508;4.980;2024-01-30T04:49:09;8.80;;;5.97;;
10383;SDS011;5238;43.508;4.980;2024-01-30T04:51:36;8.48;;;5.85;;
10383;SDS011;5238;43.508;4.980;2024-01-30T04:54:03;7.03;;;5.65;;
10383;SDS011;5238;43.508;4.980;2024-01-30T04:56:31;8.43;;;6.70;;
10383;SDS011;5238;43.508;4.980;2024-01-30T04:58:58;6.20;;;5.60;;
10383;SDS011;5238;43.508;4.980;2024-01-30T05:01:25;8.43;;;5.85;;
10383;SDS011;5238;43.508;4.980;2024-01-30T05:03:52;8.25;;;6.55;;
10383;SDS011;5238;43.508;4.980;2024-01-30T05:06:25;8.05;;;5.43;;
10383;SDS011;5238;43.508;4.980;2024-01-30T05:08:53;8.45;;;6.43;;
10383;SDS011;5238;43.508;4.980;2024-01-30T05:11:20;10.55;;;5.88;;
10383;SDS011;5238;43.508;4.980;2024-01-30T05:13:48;7.78;;;6.15;;
10383;SDS011;5238;43.508;4.980;2024-01-30T05:16:15;8.75;;;7.43;;
10383;SDS011;5238;43.508;4.980;2024-01-30T05:18:42;7.40;;;4.68;;
10383;SDS011;5238;43.508;4.980;2024-01-30T05:21:10;7.75;;;6.20;;
10383;SDS011;5238;43.508;4.980;2024-01-30T05:23:37;9.88;;;6.63;;
10383;SDS011;5238;43.508;4.980;2024-01-30T05:26:04;7.90;;;6.05;;
10383;SDS011;5238;43.508;4.980;2024-01-30T05:28:31;7.47;;;5.05;;
10383;SDS011;5238;43.508;4.980;2024-01-30T05:31:00;6.70;;;6.00;;
10383;SDS011;5238;43.508;4.980;2024-01-30T05:33:27;7.07;;;5.78;;
10383;SDS011;5238;43.508;4.980;2024-01-30T05:35:54;6.85;;;4.82;;
10383;SDS011;5238;43.508;4.980;2024-01-30T05:38:21;6.45;;;5.50;;
10383;SDS011;5238;43.508;4.980;2024-01-30T05:40:48;6.18;;;5.57;;
10383;SDS011;5238;43.508;4.980;2024-01-30T05:43:15;10.05;;;5.20;;
10383;SDS011;5238;43.508;4.980;2024-01-30T05:45:42;6.53;;;4.53;;
10383;SDS011;5238;43.508;4.980;2024-01-30T05:48:11;6.40;;;5.70;;
10383;SDS011;5238;43.508;4.980;2024-01-30T05:50:38;6.38;;;5.70;;
10383;SDS011;5238;43.508;4.980;2024-01-30T05:53:05;7.35;;;5.32;;
10383;SDS011;5238;43.508;4.980;2024-01-30T05:55:32;7.15;;;4.78;;
10383;SDS011;5238;43.508;4.980;2024-01-30T05:57:59;5.90;;;4.90;;
10383;SDS011;5238;43.508;4.980;2024-01-30T06:00:26;7.32;;;6.47;;
10383;SDS011;5238;43.508;4.980;2024-01-30T06:02:53;5.82;;;5.22;;
10383;SDS011;5238;43.508;4.980;2024-01-30T06:05:22;7.47;;;5.75;;
10383;SDS011;5238;43.508;4.980;2024-01-30T06:07:49;7.03;;;5.70;;
10383;SDS011;5238;43.508;4.980;2024-01-30T06:10:16;8.38;;;6.10;;
10383;SDS011;5238;43.508;4.980;2024-01-30T06:12:43;7.35;;;5.82;;
10383;SDS011;5238;43.508;4.980;2024-01-30T06:15:10;7.20;;;5.47;;
10383;SDS011;5238;43.508;4.980;2024-01-30T06:17:38;5.72;;;4.90;;
10383;SDS011;5238;43.508;4.980;2024-01-30T06:20:06;6.82;;;5.93;;
10383;SDS011;5238;43.508;4.980;2024-01-30T06:22:35;9.20;;;5.45;;
10383;SDS011;5238;43.508;4.980;2024-01-30T06:25:02;8.23;;;6.30;;
10383;SDS011;5238;43.508;4.980;2024-01-30T06:27:29;7.20;;;6.38;;
10383;SDS011;5238;43.508;4.980;2024-01-30T06:29:56;9.68;;;5.45;;
10383;SDS011;5238;43.508;4.980;2024-01-30T06:32:23;11.00;;;7.78;;
10383;SDS011;5238;43.508;4.980;2024-01-30T06:34:50;8.38;;;5.78;;
10383;SDS011;5238;43.508;4.980;2024-01-30T06:37:17;12.50;;;7.95;;
10383;SDS011;5238;43.508;4.980;2024-01-30T06:39:45;7.18;;;6.47;;
10383;SDS011;5238;43.508;4.980;2024-01-30T06:42:12;9.18;;;5.75;;
10383;SDS011;5238;43.508;4.980;2024-01-30T06:44:39;8.50;;;5.97;;
10383;SDS011;5238;43.508;4.980;2024-01-30T06:47:06;7.10;;;5.10;;
10383;SDS011;5238;43.508;4.980;2024-01-30T06:49:33;6.53;;;5.22;;
10383;SDS011;5238;43.508;4.980;2024-01-30T06:52:00;6.18;;;5.40;;
10383;SDS011;5238;43.508;4.980;2024-01-30T06:54:27;8.40;;;5.47;;
10383;SDS011;5238;43.508;4.980;2024-01-30T06:56:55;7.55;;;5.70;;
10383;SDS011;5238;43.508;4.980;2024-01-30T06:59:22;6.80;;;5.78;;
10383;SDS011;5238;43.508;4.980;2024-01-30T07:01:49;9.43;;;6.05;;
10383;SDS011;5238;43.508;4.980;2024-01-30T07:04:16;7.10;;;5.25;;
10383;SDS011;5238;43.508;4.980;2024-01-30T07:06:43;6.70;;;5.72;;
10383;SDS011;5238;43.508;4.980;2024-01-30T07:09:11;7.40;;;5.80;;
10383;SDS011;5238;43.508;4.980;2024-01-30T07:11:39;6.60;;;5.55;;
10383;SDS011;5238;43.508;4.980;2024-01-30T07:14:07;7.60;;;5.07;;
10383;SDS011;5238;43.508;4.980;2024-01-30T07:16:35;6.85;;;5.70;;
10383;SDS011;5238;43.508;4.980;2024-01-30T07:19:02;8.55;;;5.47;;
10383;SDS011;5238;43.508;4.980;2024-01-30T07:21:29;6.20;;;5.35;;
10383;SDS011;5238;43.508;4.980;2024-01-30T07:23:56;6.97;;;4.82;;
10383;SDS011;5238;43.508;4.980;2024-01-30T07:26:23;7.85;;;7.05;;
10383;SDS011;5238;43.508;4.980;2024-01-30T07:28:50;6.55;;;4.47;;
10383;SDS011;5238;43.508;4.980;2024-01-30T07:31:19;5.35;;;4.50;;
10383;SDS011;5238;43.508;4.980;2024-01-30T07:33:48;7.35;;;5.65;;
10383;SDS011;5238;43.508;4.980;2024-01-30T07:36:15;6.80;;;5.00;;
10383;SDS011;5238;43.508;4.980;2024-01-30T07:38:42;6.65;;;4.95;;
10383;SDS011;5238;43.508;4.980;2024-01-30T07:41:09;5.88;;;5.07;;
10383;SDS011;5238;43.508;4.980;2024-01-30T07:43:37;8.65;;;5.47;;
10383;SDS011;5238;43.508;4.980;2024-01-30T07:46:04;8.57;;;5.13;;
10383;SDS011;5238;43.508;4.980;2024-01-30T07:48:33;7.35;;;5.43;;
10383;SDS011;5238;43.508;4.980;2024-01-30T07:51:00;11.10;;;6.35;;
10383;SDS011;5238;43.508;4.980;2024-01-30T07:53:28;6.80;;;5.30;;
10383;SDS011;5238;43.508;4.980;2024-01-30T07:55:55;7.03;;;5.03;;
10383;SDS011;5238;43.508;4.980;2024-01-30T07:58:21;10.70;;;5.68;;
10383;SDS011;5238;43.508;4.980;2024-01-30T08:00:49;8.50;;;5.30;;
10383;SDS011;5238;43.508;4.980;2024-01-30T08:03:16;6.35;;;5.80;;
10383;SDS011;5238;43.508;4.980;2024-01-30T08:05:45;7.53;;;5.00;;
10383;SDS011;5238;43.508;4.980;2024-01-30T08:08:12;6.88;;;4.45;;
10383;SDS011;5238;43.508;4.980;2024-01-30T08:10:39;7.88;;;5.40;;
10383;SDS011;5238;43.508;4.980;2024-01-30T08:13:06;6.03;;;5.43;;
10383;SDS011;5238;43.508;4.980;2024-01-30T08:15:34;4.47;;;3.95;;
10383;SDS011;5238;43.508;4.980;2024-01-30T08:18:01;5.22;;;4.50;;
10383;SDS011;5238;43.508;4.980;2024-01-30T08:20:28;7.03;;;5.50;;
10383;SDS011;5238;43.508;4.980;2024-01-30T08:22:56;5.03;;;3.75;;
10383;SDS011;5238;43.508;4.980;2024-01-30T08:25:23;8.43;;;4.93;;
10383;SDS011;5238;43.508;4.980;2024-01-30T08:27:51;5.55;;;4.80;;
10383;SDS011;5238;43.508;4.980;2024-01-30T08:30:18;6.10;;;4.55;;
10383;SDS011;5238;43.508;4.980;2024-01-30T08:32:45;6.22;;;4.78;;
10383;SDS011;5238;43.508;4.980;2024-01-30T08:35:13;6.20;;;4.55;;
10383;SDS011;5238;43.508;4.980;2024-01-30T08:37:41;4.95;;;3.83;;
10383;SDS011;5238;43.508;4.980;2024-01-30T08:40:10;4.88;;;4.05;;
10383;SDS011;5238;43.508;4.980;2024-01-30T08:42:37;6.40;;;4.72;;
10383;SDS011;5238;43.508;4.980;2024-01-30T08:45:04;5.90;;;4.40;;
10383;SDS011;5238;43.508;4.980;2024-01-30T08:47:32;5.88;;;4.80;;
10383;SDS011;5238;43.508;4.980;2024-01-30T08:49:59;4.60;;;3.92;;
10383;SDS011;5238;43.508;4.980;2024-01-30T08:52:26;6.13;;;4.00;;
10383;SDS011;5238;43.508;4.980;2024-01-30T08:54:53;5.50;;;3.65;;
10383;SDS011;5238;43.508;4.980;2024-01-30T08:57:21;6.97;;;4.55;;
10383;SDS011;5238;43.508;4.980;2024-01-30T08:59:49;5.05;;;3.88;;
10383;SDS011;5238;43.508;4.980;2024-01-30T09:02:16;5.30;;;3.50;;
10383;SDS011;5238;43.508;4.980;2024-01-30T09:04:43;4.65;;;4.10;;
10383;SDS011;5238;43.508;4.980;2024-01-30T09:07:10;4.30;;;3.90;;
10383;SDS011;5238;43.508;4.980;2024-01-30T09:09:38;6.18;;;3.60;;
10383;SDS011;5238;43.508;4.980;2024-01-30T09:12:07;5.95;;;3.95;;
10383;SDS011;5238;43.508;4.980;2024-01-30T09:14:40;4.25;;;3.85;;
10383;SDS011;5238;43.508;4.980;2024-01-30T09:17:10;6.10;;;5.00;;
10383;SDS011;5238;43.508;4.980;2024-01-30T09:19:38;7.82;;;4.25;;
10383;SDS011;5238;43.508;4.980;2024-01-30T09:22:05;5.15;;;4.65;;
10383;SDS011;5238;43.508;4.980;2024-01-30T09:24:33;5.30;;;4.85;;
10383;SDS011;5238;43.508;4.980;2024-01-30T09:26:59;4.75;;;4.10;;
10383;SDS011;5238;43.508;4.980;2024-01-30T09:29:26;5.50;;;4.40;;
10383;SDS011;5238;43.508;4.980;2024-01-30T09:31:55;6.38;;;5.55;;
10383;SDS011;5238;43.508;4.980;2024-01-30T09:34:22;4.60;;;4.18;;
10383;SDS011;5238;43.508;4.980;2024-01-30T09:36:49;4.63;;;4.22;;
10383;SDS011;5238;43.508;4.980;2024-01-30T09:39:16;5.90;;;5.30;;
10383;SDS011;5238;43.508;4.980;2024-01-30T09:41:49;4.97;;;4.47;;
10383;SDS011;5238;43.508;4.980;2024-01-30T09:44:22;5.68;;;4.70;;
10383;SDS011;5238;43.508;4.980;2024-01-30T09:46:52;5.13;;;4.32;;
10383;SDS011;5238;43.508;4.980;2024-01-30T09:49:21;6.22;;;4.82;;
10383;SDS011;5238;43.508;4.980;2024-01-30T09:51:49;6.15;;;5.28;;
10383;SDS011;5238;43.508;4.980;2024-01-30T09:54:18;6.78;;;5.88;;
10383;SDS011;5238;43.508;4.980;2024-01-30T09:56:47;6.43;;;5.72;;
10383;SDS011;5238;43.508;4.980;2024-01-30T09:59:14;7.10;;;6.32;;
10383;SDS011;5238;43.508;4.980;2024-01-30T10:01:42;8.30;;;7.07;;
10383;SDS011;5238;43.508;4.980;2024-01-30T10:04:09;8.90;;;6.68;;
10383;SDS011;5238;43.508;4.980;2024-01-30T10:06:38;9.00;;;6.22;;
10383;SDS011;5238;43.508;4.980;2024-01-30T10:09:07;9.80;;;7.38;;
10383;SDS011;5238;43.508;4.980;2024-01-30T10:11:34;7.47;;;5.68;;
10383;SDS011;5238;43.508;4.980;2024-01-30T10:14:02;7.60;;;6.38;;
10383;SDS011;5238;43.508;4.980;2024-01-30T10:16:29;7.45;;;6.75;;
10383;SDS011;5238;43.508;4.980;2024-01-30T10:18:56;7.53;;;6.13;;
10383;SDS011;5238;43.508;4.980;2024-01-30T10:21:23;6.82;;;5.97;;
10383;SDS011;5238;43.508;4.980;2024-01-30T10:23:52;6.63;;;5.93;;
10383;SDS011;5238;43.508;4.980;2024-01-30T10:26:19;5.70;;;5.10;;
10383;SDS011;5238;43.508;4.980;2024-01-30T10:28:47;5.28;;;4.63;;
10383;SDS011;5238;43.508;4.980;2024-01-30T10:31:16;5.57;;;4.75;;
10383;SDS011;5238;43.508;4.980;2024-01-30T10:33:44;6.18;;;5.30;;
10383;SDS011;5238;43.508;4.980;2024-01-30T10:36:13;4.85;;;4.35;;
10383;SDS011;5238;43.508;4.980;2024-01-30T10:38:42;6.07;;;4.65;;
10383;SDS011;5238;43.508;4.980;2024-01-30T10:41:12;7.07;;;5.55;;
10383;SDS011;5238;43.508;4.980;2024-01-30T10:43:42;5.43;;;4.93;;
10383;SDS011;5238;43.508;4.980;2024-01-30T10:46:17;6.22;;;4.97;;
10383;SDS011;5238;43.508;4.980;2024-01-30T10:48:50;8.23;;;4.97;;
10383;SDS011;5238;43.508;4.980;2024-01-30T10:51:22;6.22;;;5.25;;
10383;SDS011;5238;43.508;4.980;2024-01-30T10:53:50;6.40;;;5.30;;
10383;SDS011;5238;43.508;4.980;2024-01-30T10:56:19;5.03;;;4.47;;
10383;SDS011;5238;43.508;4.980;2024-01-30T10:58:48;7.05;;;5.10;;
10383;SDS011;5238;43.508;4.980;2024-01-30T11:01:16;5.55;;;5.05;;
10383;SDS011;5238;43.508;4.980;2024-01-30T11:03:43;8.07;;;5.25;;
10383;SDS011;5238;43.508;4.980;2024-01-30T11:06:11;4.63;;;4.20;;
10383;SDS011;5238;43.508;4.980;2024-01-30T11:08:39;5.80;;;5.20;;
10383;SDS011;5238;43.508;4.980;2024-01-30T11:11:08;5.90;;;5.00;;
10383;SDS011;5238;43.508;4.980;2024-01-30T11:13:37;5.05;;;4.55;;
10383;SDS011;5238;43.508;4.980;2024-01-30T11:16:04;5.72;;;5.18;;
10383;SDS011;5238;43.508;4.980;2024-01-30T11:18:32;6.43;;;5.50;;
10383;SDS011;5238;43.508;4.980;2024-01-30T11:21:04;7.13;;;4.90;;
10383;SDS011;5238;43.508;4.980;2024-01-30T11:23:33;5.93;;;4.43;;
10383;SDS011;5238;43.508;4.980;2024-01-30T11:26:00;7.85;;;5.20;;
10383;SDS011;5238;43.508;4.980;2024-01-30T11:28:31;6.05;;;5.55;;
10383;SDS011;5238;43.508;4.980;2024-01-30T11:31:04;5.80;;;4.95;;
10383;SDS011;5238;43.508;4.980;2024-01-30T11:33:33;5.88;;;5.18;;
10383;SDS011;5238;43.508;4.980;2024-01-30T11:36:02;6.75;;;5.78;;
10383;SDS011;5238;43.508;4.980;2024-01-30T11:38:32;6.05;;;5.40;;
10383;SDS011;5238;43.508;4.980;2024-01-30T11:40:59;7.30;;;5.07;;
10383;SDS011;5238;43.508;4.980;2024-01-30T11:43:26;7.60;;;5.78;;
10383;SDS011;5238;43.508;4.980;2024-01-30T11:45:53;7.50;;;6.10;;
10383;SDS011;5238;43.508;4.980;2024-01-30T11:48:22;6.57;;;5.65;;
10383;SDS011;5238;43.508;4.980;2024-01-30T11:50:49;7.50;;;6.18;;
10383;SDS011;5238;43.508;4.980;2024-01-30T11:53:16;7.72;;;6.00;;
10383;SDS011;5238;43.508;4.980;2024-01-30T11:55:49;7.88;;;4.90;;
10383;SDS011;5238;43.508;4.980;2024-01-30T11:58:16;7.05;;;4.88;;
10383;SDS011;5238;43.508;4.980;2024-01-30T12:00:52;8.20;;;5.25;;
10383;SDS011;5238;43.508;4.980;2024-01-30T12:03:22;6.35;;;5.43;;
10383;SDS011;5238;43.508;4.980;2024-01-30T12:05:54;7.50;;;5.13;;
10383;SDS011;5238;43.508;4.980;2024-01-30T12:08:21;7.85;;;6.30;;
10383;SDS011;5238;43.508;4.980;2024-01-30T12:10:54;6.03;;;5.00;;
10383;SDS011;5238;43.508;4.980;2024-01-30T12:13:22;5.60;;;5.00;;
10383;SDS011;5238;43.508;4.980;2024-01-30T12:15:49;8.43;;;6.57;;
10383;SDS011;5238;43.508;4.980;2024-01-30T12:18:18;7.57;;;5.30;;
10383;SDS011;5238;43.508;4.980;2024-01-30T12:20:57;7.55;;;5.45;;
10383;SDS011;5238;43.508;4.980;2024-01-30T12:23:25;5.95;;;5.43;;
10383;SDS011;5238;43.508;4.980;2024-01-30T12:25:52;6.55;;;5.95;;
10383;SDS011;5238;43.508;4.980;2024-01-30T12:28:20;6.35;;;5.50;;
10383;SDS011;5238;43.508;4.980;2024-01-30T12:30:47;4.80;;;4.35;;
10383;SDS011;5238;43.508;4.980;2024-01-30T12:33:16;6.03;;;5.43;;
10383;SDS011;5238;43.508;4.980;2024-01-30T12:35:45;5.20;;;4.30;;
10383;SDS011;5238;43.508;4.980;2024-01-30T12:38:14;4.90;;;3.63;;
10383;SDS011;5238;43.508;4.980;2024-01-30T12:40:41;4.57;;;3.92;;
10383;SDS011;5238;43.508;4.980;2024-01-30T12:43:09;8.15;;;5.78;;
10383;SDS011;5238;43.508;4.980;2024-01-30T12:45:36;5.13;;;3.65;;
10383;SDS011;5238;43.508;4.980;2024-01-30T12:48:03;5.28;;;4.03;;
10383;SDS011;5238;43.508;4.980;2024-01-30T12:50:30;7.03;;;5.05;;
10383;SDS011;5238;43.508;4.980;2024-01-30T12:52:57;6.22;;;5.20;;
10383;SDS011;5238;43.508;4.980;2024-01-30T12:55:26;7.22;;;3.58;;
10383;SDS011;5238;43.508;4.980;2024-01-30T12:57:53;5.43;;;4.75;;
10383;SDS011;5238;43.508;4.980;2024-01-30T13:00:20;4.72;;;4.05;;
10383;SDS011;5238;43.508;4.980;2024-01-30T13:02:48;5.63;;;5.05;;
10383;SDS011;5238;43.508;4.980;2024-01-30T13:05:15;4.90;;;4.05;;
10383;SDS011;5238;43.508;4.980;2024-01-30T13:07:42;7.43;;;4.55;;
10383;SDS011;5238;43.508;4.980;2024-01-30T13:10:09;7.55;;;5.47;;
10383;SDS011;5238;43.508;4.980;2024-01-30T13:12:38;5.53;;;3.58;;
10383;SDS011;5238;43.508;4.980;2024-01-30T13:15:05;6.90;;;4.50;;
10383;SDS011;5238;43.508;4.980;2024-01-30T13:17:32;5.38;;;4.88;;
10383;SDS011;5238;43.508;4.980;2024-01-30T13:19:59;7.18;;;4.50;;
10383;SDS011;5238;43.508;4.980;2024-01-30T13:22:27;8.05;;;4.63;;
10383;SDS011;5238;43.508;4.980;2024-01-30T13:24:54;5.40;;;4.90;;
10383;SDS011;5238;43.508;4.980;2024-01-30T13:27:21;6.88;;;4.22;;
10383;SDS011;5238;43.508;4.980;2024-01-30T13:29:49;8.65;;;6.40;;
10383;SDS011;5238;43.508;4.980;2024-01-30T13:32:16;6.18;;;4.10;;
10383;SDS011;5238;43.508;4.980;2024-01-30T13:34:43;7.85;;;4.60;;
10383;SDS011;5238;43.508;4.980;2024-01-30T13:37:10;7.80;;;4.30;;
10383;SDS011;5238;43.508;4.980;2024-01-30T13:39:38;5.82;;;3.60;;
10383;SDS011;5238;43.508;4.980;2024-01-30T13:42:05;4.97;;;4.47;;
10383;SDS011;5238;43.508;4.980;2024-01-30T13:44:32;5.38;;;4.47;;
10383;SDS011;5238;43.508;4.980;2024-01-30T13:47:02;5.82;;;4.15;;
10383;SDS011;5238;43.508;4.980;2024-01-30T13:49:29;5.30;;;4.07;;
10383;SDS011;5238;43.508;4.980;2024-01-30T13:51:56;4.55;;;4.07;;
10383;SDS011;5238;43.508;4.980;2024-01-30T13:54:23;6.00;;;4.40;;
10383;SDS011;5238;43.508;4.980;2024-01-30T13:56:50;4.80;;;4.32;;
10383;SDS011;5238;43.508;4.980;2024-01-30T13:59:17;4.95;;;3.97;;
10383;SDS011;5238;43.508;4.980;2024-01-30T14:01:48;5.60;;;4.10;;
10383;SDS011;5238;43.508;4.980;2024-01-30T14:04:17;4.60;;;4.22;;
10383;SDS011;5238;43.508;4.980;2024-01-30T14:06:44;6.25;;;3.90;;
10383;SDS011;5238;43.508;4.980;2024-01-30T14:09:11;5.75;;;4.50;;
10383;SDS011;5238;43.508;4.980;2024-01-30T14:11:40;7.57;;;4.65;;
10383;SDS011;5238;43.508;4.980;2024-01-30T14:14:08;5.32;;;4.35;;
10383;SDS011;5238;43.508;4.980;2024-01-30T14:16:35;5.95;;;4.85;;
10383;SDS011;5238;43.508;4.980;2024-01-30T14:19:02;5.85;;;5.25;;
10383;SDS011;5238;43.508;4.980;2024-01-30T14:21:31;4.50;;;3.60;;
10383;SDS011;5238;43.508;4.980;2024-01-30T14:23:57;8.93;;;4.55;;
10383;SDS011;5238;43.508;4.980;2024-01-30T14:26:25;4.68;;;4.28;;
10383;SDS011;5238;43.508;4.980;2024-01-30T14:28:52;5.40;;;4.90;;
10383;SDS011;5238;43.508;4.980;2024-01-30T14:31:20;5.43;;;4.30;;
10383;SDS011;5238;43.508;4.980;2024-01-30T14:33:49;5.22;;;4.35;;
10383;SDS011;5238;43.508;4.980;2024-01-30T14:36:17;4.68;;;4.28;;
10383;SDS011;5238;43.508;4.980;2024-01-30T14:38:47;6.38;;;5.28;;
10383;SDS011;5238;43.508;4.980;2024-01-30T14:41:14;4.43;;;3.55;;
10383;SDS011;5238;43.508;4.980;2024-01-30T14:43:41;4.20;;;3.70;;
10383;SDS011;5238;43.508;4.980;2024-01-30T14:46:08;5.72;;;4.05;;
10383;SDS011;5238;43.508;4.980;2024-01-30T14:48:34;5.15;;;4.35;;
10383;SDS011;5238;43.508;4.980;2024-01-30T14:51:02;4.85;;;3.88;;
10383;SDS011;5238;43.508;4.980;2024-01-30T14:53:29;4.10;;;3.50;;
10383;SDS011;5238;43.508;4.980;2024-01-30T14:55:57;6.28;;;4.50;;
10383;SDS011;5238;43.508;4.980;2024-01-30T14:58:24;6.32;;;4.30;;
10383;SDS011;5238;43.508;4.980;2024-01-30T15:00:51;5.10;;;4.60;;